Time;durP1;ratioP1;P1;durP2;ratioP2;P2;SDS_P1;SDS_P2;PMS_P1;PMS_P2;Temp;Humidity;BMP_temperature;BMP_pressure;BME280_temperature;BME280_humidity;BME280_pressure;Samples;Min_cycle;Max_cycle;Signal;HPM_P1;HPM_P2
2023/05/22 00:02:03;;;;;;;10.60;6.40;;;;;;;14.52;96.43;94923.75;5014472;28;20835;-82
2023/05/22 00:04:30;;;;;;;10.53;6.73;;;;;;;14.65;94.62;94923.59;5014329;28;20284;-81
2023/05/22 00:06:55;;;;;;;10.77;6.60;;;;;;;14.58;96.41;94914.16;5023904;28;20262;-80
2023/05/22 00:09:22;;;;;;;12.80;6.70;;;;;;;14.41;97.20;94926.34;5009675;28;20230;-80
2023/05/22 00:11:47;;;;;;;12.57;6.70;;;;;;;14.44;97.41;94918.81;5020433;28;20324;-81
2023/05/22 00:14:13;;;;;;;11.07;6.50;;;;;;;14.56;96.92;94919.69;5020888;28;20652;-81
2023/05/22 00:16:39;;;;;;;13.83;7.07;;;;;;;14.63;96.98;94928.28;5023012;28;20698;-81
2023/05/22 00:19:05;;;;;;;12.03;6.90;;;;;;;14.47;97.55;94912.31;5029370;28;20233;-80
2023/05/22 00:21:36;;;;;;;14.87;6.93;;;;;;;14.52;97.55;94922.97;5029203;28;20230;-81
2023/05/22 00:24:02;;;;;;;12.77;6.87;;;;;;;14.67;96.73;94921.53;5032304;28;20696;-80
2023/05/22 00:26:28;;;;;;;12.93;6.60;;;;;;;14.78;96.06;94920.75;5009921;28;20695;-81
2023/05/22 00:28:53;;;;;;;11.40;6.57;;;;;;;14.91;95.17;94921.59;5019754;28;20264;-81
2023/05/22 00:31:19;;;;;;;11.60;7.27;;;;;;;14.87;93.89;94925.72;5019634;28;20230;-82
2023/05/22 00:33:44;;;;;;;15.37;7.00;;;;;;;14.97;95.01;94925.97;5002082;28;20240;-81
2023/05/22 00:36:10;;;;;;;14.50;7.07;;;;;;;15.07;94.07;94927.00;5018668;28;20303;-82
2023/05/22 00:38:36;;;;;;;14.90;6.60;;;;;;;14.96;95.17;94927.81;5001927;28;20237;-82
2023/05/22 00:41:02;;;;;;;13.00;6.80;;;;;;;15.03;93.62;94932.97;5017791;28;20238;-82
2023/05/22 00:43:28;;;;;;;11.77;6.60;;;;;;;15.07;93.39;94934.13;5041295;28;20222;-82
2023/05/22 00:45:54;;;;;;;12.10;6.87;;;;;;;15.09;92.89;94935.53;5016285;28;20722;-82
2023/05/22 00:48:20;;;;;;;13.23;7.30;;;;;;;15.11;92.18;94930.00;5032236;28;20303;-81
2023/05/22 00:50:46;;;;;;;14.53;7.00;;;;;;;15.08;93.05;94931.25;5018404;28;20307;-81
2023/05/22 00:53:12;;;;;;;8.50;6.17;;;;;;;15.01;94.16;94927.13;5003707;28;20240;-81
2023/05/22 00:55:37;;;;;;;12.17;6.80;;;;;;;15.03;92.98;94935.59;5031182;28;20743;-80
2023/05/22 00:58:06;;;;;;;13.43;7.30;;;;;;;14.97;93.72;94926.78;5033938;28;20237;-80
2023/05/22 01:00:33;;;;;;;11.70;6.93;;;;;;;14.97;92.95;94926.78;5033587;28;20288;-81
2023/05/22 01:02:59;;;;;;;11.47;7.13;;;;;;;15.00;92.46;94925.53;5028442;28;20249;-81
2023/05/22 01:05:25;;;;;;;12.20;7.03;;;;;;;15.05;92.67;94921.16;5016413;28;20261;-82
2023/05/22 01:07:52;;;;;;;11.47;6.83;;;;;;;15.01;92.71;94925.28;5030946;28;20237;-81
2023/05/22 01:10:18;;;;;;;13.73;6.90;;;;;;;14.90;93.15;94922.63;5015143;28;20229;-82
2023/05/22 01:13:13;;;;;;;11.70;6.70;;;;;;;14.95;93.37;94922.78;5033246;28;20261;-83
2023/05/22 01:16:14;;;;;;;11.83;7.20;;;;;;;14.85;94.14;94929.38;5013212;28;20309;-82
2023/05/22 01:18:39;;;;;;;13.03;6.87;;;;;;;14.71;94.96;94922.69;5032903;28;20241;-80
2023/05/22 01:21:44;;;;;;;13.63;6.77;;;;;;;14.61;95.34;94927.72;5050374;28;20260;-81
2023/05/22 01:24:45;;;;;;;10.77;6.50;;;;;;;14.72;95.29;94924.31;5034193;28;20332;-81
2023/05/22 01:27:45;;;;;;;13.37;7.10;;;;;;;14.63;95.97;94912.47;5027205;28;20247;-80
2023/05/22 01:30:34;;;;;;;10.73;7.10;;;;;;;14.68;95.63;94906.53;5031569;28;20821;-82
2023/05/22 01:32:59;;;;;;;13.00;6.97;;;;;;;14.78;94.61;94915.50;5026206;28;20964;-81
2023/05/22 01:35:25;;;;;;;11.50;7.07;;;;;;;14.62;95.26;94907.41;5000866;28;20241;-80
2023/05/22 01:37:50;;;;;;;12.87;7.10;;;;;;;14.42;96.57;94902.44;5026642;28;20233;-80
2023/05/22 01:40:16;;;;;;;11.27;6.90;;;;;;;14.41;95.89;94902.66;5008035;28;20238;-80
2023/05/22 01:42:42;;;;;;;14.13;7.33;;;;;;;14.48;96.15;94898.09;5030654;28;20321;-80
2023/05/22 01:45:09;;;;;;;11.20;7.20;;;;;;;14.41;95.94;94900.84;5013905;28;20240;-81
2023/05/22 01:47:35;;;;;;;13.20;7.47;;;;;;;14.43;95.83;94897.97;5017083;28;20249;-80
2023/05/22 01:50:03;;;;;;;14.63;7.20;;;;;;;14.43;95.58;94904.03;5031633;28;20298;-79
2023/05/22 01:52:40;;;;;;;15.57;7.83;;;;;;;14.37;96.29;94902.31;5018026;28;20256;-81
2023/05/22 01:55:16;;;;;;;13.97;7.33;;;;;;;14.33;96.53;94902.97;5024786;28;20241;-81
2023/05/22 01:57:56;;;;;;;12.23;7.47;;;;;;;14.35;95.99;94909.63;5012234;28;20226;-80
2023/05/22 02:00:21;;;;;;;12.73;7.27;;;;;;;14.32;95.99;94896.91;5004897;28;20222;-80
2023/05/22 02:02:48;;;;;;;13.73;7.10;;;;;;;14.20;96.82;94901.28;5030764;28;20233;-80
2023/05/22 02:05:13;;;;;;;13.17;8.00;;;;;;;14.11;97.32;94895.50;5030864;28;20244;-80
2023/05/22 02:07:39;;;;;;;15.83;7.70;;;;;;;14.26;96.30;94903.00;4998844;28;20234;-81
2023/05/22 02:10:06;;;;;;;14.37;7.97;;;;;;;14.36;96.60;94894.63;5016848;28;20230;-80
2023/05/22 02:12:31;;;;;;;14.13;7.70;;;;;;;14.31;97.02;94895.28;5029850;28;20272;-81
2023/05/22 02:14:56;;;;;;;12.97;7.43;;;;;;;14.38;96.66;94905.72;5031325;28;20233;-80
2023/05/22 02:17:22;;;;;;;15.30;7.43;;;;;;;14.16;97.51;94908.03;5034068;28;20241;-80
2023/05/22 02:19:47;;;;;;;13.77;7.73;;;;;;;14.09;97.03;94905.47;5036740;28;20306;-80
2023/05/22 02:22:13;;;;;;;13.73;7.40;;;;;;;13.94;98.18;94901.59;5022517;28;20271;-81
2023/05/22 02:24:43;;;;;;;14.83;7.13;;;;;;;13.91;99.26;94900.22;5021203;28;20269;-81
2023/05/22 02:27:08;;;;;;;13.27;7.60;;;;;;;14.02;98.48;94903.91;5029617;28;20236;-81
2023/05/22 02:29:34;;;;;;;12.50;7.67;;;;;;;13.97;98.00;94906.44;5030664;28;20237;-80
2023/05/22 02:31:59;;;;;;;11.87;7.03;;;;;;;13.95;98.73;94901.38;5031312;28;20226;-80
2023/05/22 02:34:25;;;;;;;15.87;8.27;;;;;;;13.84;99.68;94896.06;5032532;28;20237;-81
2023/05/22 02:36:51;;;;;;;12.63;7.53;;;;;;;13.60;100.00;94903.00;5014717;28;20229;-80
2023/05/22 02:39:17;;;;;;;15.40;8.03;;;;;;;13.56;100.00;94906.28;5034000;28;20712;-80
2023/05/22 02:41:43;;;;;;;13.43;7.70;;;;;;;13.67;100.00;94902.91;4993024;28;20711;-79
2023/05/22 02:44:08;;;;;;;12.67;7.83;;;;;;;13.52;100.00;94902.47;5019762;28;20241;-80
2023/05/22 02:46:34;;;;;;;13.20;7.77;;;;;;;13.46;100.00;94902.31;5030359;28;20318;-80
2023/05/22 02:48:59;;;;;;;13.83;7.90;;;;;;;13.59;100.00;94888.22;5022160;28;20241;-80
2023/05/22 02:51:25;;;;;;;13.90;7.70;;;;;;;13.56;100.00;94899.19;5030549;28;20234;-79
2023/05/22 02:53:51;;;;;;;15.23;8.00;;;;;;;13.35;100.00;94889.09;5015953;28;20312;-81
2023/05/22 02:56:17;;;;;;;14.70;8.27;;;;;;;13.36;100.00;94895.94;5013145;28;20261;-82
2023/05/22 02:58:43;;;;;;;14.27;7.80;;;;;;;13.28;100.00;94902.28;5021646;28;20237;-80
2023/05/22 03:01:09;;;;;;;14.10;8.10;;;;;;;13.30;100.00;94900.22;5009748;28;20286;-80
2023/05/22 03:03:34;;;;;;;13.53;7.80;;;;;;;13.30;100.00;94896.81;5007730;28;20988;-80
2023/05/22 03:06:00;;;;;;;12.80;8.10;;;;;;;13.26;100.00;94896.44;5016745;28;20233;-80
2023/05/22 03:08:30;;;;;;;15.30;7.97;;;;;;;13.28;100.00;94899.66;5032052;28;20245;-80
2023/05/22 03:10:56;;;;;;;13.47;7.90;;;;;;;13.38;100.00;94891.28;5007629;28;20263;-78
2023/05/22 03:13:22;;;;;;;14.73;7.70;;;;;;;13.42;100.00;94895.88;5029673;28;20230;-79
2023/05/22 03:15:47;;;;;;;12.23;7.63;;;;;;;13.20;100.00;94896.50;5028191;28;20222;-80
2023/05/22 03:18:13;;;;;;;14.67;7.80;;;;;;;13.44;100.00;94901.75;5040324;28;20233;-80
2023/05/22 03:20:38;;;;;;;12.37;7.70;;;;;;;13.44;100.00;94899.13;5035321;28;20616;-80
2023/05/22 03:23:04;;;;;;;16.63;8.07;;;;;;;13.25;100.00;94899.28;5030412;28;20265;-81
2023/05/22 03:25:29;;;;;;;16.30;8.00;;;;;;;13.30;100.00;94897.59;5034072;28;20244;-81
2023/05/22 03:27:55;;;;;;;17.83;8.50;;;;;;;13.16;100.00;94893.50;5019737;28;20241;-80
2023/05/22 03:30:20;;;;;;;16.57;8.50;;;;;;;13.10;100.00;94897.00;5012115;28;20242;-81
2023/05/22 03:32:46;;;;;;;13.87;8.10;;;;;;;13.30;100.00;94897.59;5013792;28;20245;-80
2023/05/22 03:35:14;;;;;;;17.27;8.27;;;;;;;13.31;100.00;94901.84;5043759;28;20256;-81
2023/05/22 03:37:39;;;;;;;13.60;8.33;;;;;;;13.29;100.00;94896.03;4995671;28;20239;-81
2023/05/22 03:40:06;;;;;;;16.73;8.43;;;;;;;13.29;100.00;94892.56;5038383;28;20290;-80
2023/05/22 03:42:31;;;;;;;18.87;8.30;;;;;;;13.33;100.00;94904.25;5050684;28;20339;-80
2023/05/22 03:44:57;;;;;;;13.00;7.97;;;;;;;13.46;100.00;94902.31;5023045;28;20653;-79
2023/05/22 03:47:22;;;;;;;12.40;8.33;;;;;;;13.49;100.00;94906.34;5025125;28;20268;-80
2023/05/22 03:49:48;;;;;;;14.73;8.33;;;;;;;13.52;100.00;94903.25;5020352;28;20230;-81
2023/05/22 03:52:13;;;;;;;16.43;9.07;;;;;;;13.63;100.00;94907.81;5037594;28;20226;-82
2023/05/22 03:54:39;;;;;;;15.93;8.53;;;;;;;13.61;100.00;94906.44;5046172;28;20241;-81
2023/05/22 03:57:04;;;;;;;14.37;8.93;;;;;;;13.65;100.00;94904.97;5038425;28;20240;-80
2023/05/22 03:59:30;;;;;;;15.17;9.10;;;;;;;13.73;100.00;94908.09;5031574;28;20261;-80
2023/05/22 04:01:56;;;;;;;15.07;9.00;;;;;;;13.64;100.00;94906.78;5042799;28;20245;-80
2023/05/22 04:04:25;;;;;;;17.03;9.47;;;;;;;13.78;100.00;94904.84;5031831;28;20696;-80
2023/05/22 04:06:51;;;;;;;19.40;9.30;;;;;;;13.84;100.00;94906.56;5020021;28;20718;-80
2023/05/22 04:09:17;;;;;;;22.67;9.70;;;;;;;13.82;100.00;94912.06;5034110;28;20316;-80
2023/05/22 04:11:42;;;;;;;19.33;9.43;;;;;;;13.88;100.00;94913.00;5004796;28;20252;-80
2023/05/22 04:14:08;;;;;;;17.57;9.80;;;;;;;13.95;100.00;94916.34;5018346;28;20233;-81
2023/05/22 04:16:33;;;;;;;22.10;9.50;;;;;;;14.09;100.00;94912.56;5030632;28;20237;-81
2023/05/22 04:19:02;;;;;;;17.93;9.80;;;;;;;13.90;100.00;94911.75;5026049;28;20241;-81
2023/05/22 04:21:29;;;;;;;20.33;9.90;;;;;;;13.92;100.00;94911.56;5017236;28;20280;-80
2023/05/22 04:23:54;;;;;;;17.33;9.73;;;;;;;13.95;100.00;94913.72;5026065;28;20230;-81
2023/05/22 04:26:20;;;;;;;17.23;9.47;;;;;;;13.98;100.00;94914.09;5034051;28;20242;-81
2023/05/22 04:28:46;;;;;;;21.83;10.53;;;;;;;13.72;100.00;94911.75;5032880;28;20229;-81
2023/05/22 04:31:12;;;;;;;21.00;10.60;;;;;;;13.72;100.00;94924.09;5032953;28;20299;-82
2023/05/22 04:33:38;;;;;;;19.07;9.50;;;;;;;13.99;100.00;94915.72;5027172;28;21016;-81
2023/05/22 04:36:05;;;;;;;22.40;11.60;;;;;;;14.06;100.00;94919.06;5033956;28;20222;-81
2023/05/22 04:38:30;;;;;;;21.40;11.67;;;;;;;14.11;100.00;94921.03;5018682;28;20234;-79
2023/05/22 04:40:56;;;;;;;18.03;10.13;;;;;;;14.39;100.00;94923.16;5034903;28;20746;-79
2023/05/22 04:43:25;;;;;;;18.07;10.10;;;;;;;14.64;100.00;94921.19;5013393;28;20234;-81
2023/05/22 04:45:51;;;;;;;24.17;11.07;;;;;;;14.88;100.00;94935.25;5018414;28;20234;-80
2023/05/22 04:48:16;;;;;;;25.40;11.00;;;;;;;15.04;97.95;94927.47;5014000;28;20255;-80
2023/05/22 04:50:45;;;;;;;15.80;10.30;;;;;;;15.11;98.62;94925.56;5035474;28;20302;-81
2023/05/22 04:53:11;;;;;;;17.90;10.30;;;;;;;15.15;96.96;94920.59;5031644;28;20313;-80
2023/05/22 04:55:37;;;;;;;17.70;11.00;;;;;;;15.17;96.64;94926.44;5031904;28;20226;-81
2023/05/22 04:58:02;;;;;;;22.50;10.80;;;;;;;15.37;94.81;94932.22;5031486;28;20230;-81
2023/05/22 05:00:28;;;;;;;17.87;10.70;;;;;;;16.64;90.32;94920.69;5034686;28;20324;-82
2023/05/22 05:02:53;;;;;;;22.40;10.23;;;;;;;18.25;82.21;94927.69;5026372;28;20218;-82
2023/05/22 05:05:19;;;;;;;17.77;10.57;;;;;;;18.18;82.58;94930.50;5027128;28;20236;-81
2023/05/22 05:07:46;;;;;;;21.00;10.50;;;;;;;17.30;85.16;94934.00;5032114;28;20237;-82
2023/05/22 05:10:12;;;;;;;17.97;10.43;;;;;;;17.14;86.83;94934.81;5019294;28;20234;-82
2023/05/22 05:12:37;;;;;;;19.80;10.40;;;;;;;18.41;82.36;94935.59;5031855;28;20241;-81
2023/05/22 05:15:03;;;;;;;18.03;10.53;;;;;;;20.35;72.21;94935.91;5035110;28;20233;-81
2023/05/22 05:17:34;;;;;;;21.17;10.20;;;;;;;20.95;69.86;94940.63;5024187;28;20229;-82
2023/05/22 05:19:59;;;;;;;20.57;10.40;;;;;;;21.76;66.30;94946.03;5032775;28;20295;-82
2023/05/22 05:22:25;;;;;;;17.97;10.10;;;;;;;21.17;68.83;94937.75;5024403;28;20242;-81
2023/05/22 05:24:50;;;;;;;19.93;9.87;;;;;;;20.63;72.31;94942.69;5031380;28;20233;-81
2023/05/22 05:27:16;;;;;;;19.00;9.60;;;;;;;20.36;70.98;94942.03;5032268;28;20797;-82
2023/05/22 05:29:41;;;;;;;17.60;9.40;;;;;;;18.90;73.32;94944.38;5032970;28;20226;-81
2023/05/22 05:32:08;;;;;;;14.73;8.73;;;;;;;19.10;74.36;94938.47;5022872;28;20664;-80
2023/05/22 05:34:34;;;;;;;14.27;9.10;;;;;;;18.58;74.80;94943.50;5017721;28;20237;-81
2023/05/22 05:37:01;;;;;;;15.73;9.07;;;;;;;17.75;80.23;94941.84;5030947;28;20234;-80
2023/05/22 05:39:27;;;;;;;16.77;9.30;;;;;;;18.17;82.86;94945.59;5040403;28;20284;-81
2023/05/22 05:41:52;;;;;;;16.20;9.10;;;;;;;18.14;80.91;94946.13;5009711;28;20706;-80
2023/05/22 05:44:17;;;;;;;18.77;9.30;;;;;;;18.47;78.51;94945.22;5015759;28;20245;-80
2023/05/22 05:46:43;;;;;;;13.70;8.50;;;;;;;18.33;79.01;94940.50;5019548;28;20739;-81
2023/05/22 05:49:09;;;;;;;15.43;8.60;;;;;;;18.55;77.16;94944.78;5030516;28;20592;-82
2023/05/22 05:51:38;;;;;;;13.53;8.10;;;;;;;18.38;76.78;94941.38;5023301;28;20279;-81
2023/05/22 05:54:03;;;;;;;18.30;8.13;;;;;;;18.33;79.17;94937.84;4995213;28;20325;-81
2023/05/22 05:56:29;;;;;;;15.43;8.37;;;;;;;18.38;78.43;94940.56;5028001;28;20731;-80
2023/05/22 05:58:55;;;;;;;17.13;8.20;;;;;;;18.15;78.80;94946.91;5030599;28;20238;-82
2023/05/22 06:01:23;;;;;;;16.50;7.83;;;;;;;18.16;78.55;94944.03;5032475;28;21329;-79
2023/05/22 06:03:49;;;;;;;13.30;7.70;;;;;;;18.27;76.72;94947.59;5030251;28;20233;-81
2023/05/22 06:06:16;;;;;;;11.57;7.73;;;;;;;18.03;78.10;94938.28;5031197;28;20727;-81
2023/05/22 06:08:42;;;;;;;19.73;7.87;;;;;;;17.91;79.41;94946.31;5030445;28;20238;-81
2023/05/22 06:11:07;;;;;;;14.70;7.83;;;;;;;17.67;80.09;94952.88;5013307;28;20235;-80
2023/05/22 06:13:33;;;;;;;14.97;7.77;;;;;;;17.56;82.25;94948.44;5034489;28;20238;-79
2023/05/22 06:15:58;;;;;;;15.47;7.93;;;;;;;17.51;81.26;94943.03;5044089;28;20233;-79
2023/05/22 06:18:24;;;;;;;12.87;7.77;;;;;;;17.52;81.17;94944.69;5023243;28;20748;-80
2023/05/22 06:20:50;;;;;;;14.83;7.97;;;;;;;17.65;79.64;94954.94;5015747;28;20237;-80
2023/05/22 06:23:16;;;;;;;13.50;7.80;;;;;;;17.42;81.46;94950.59;5016664;28;20234;-80
2023/05/22 06:25:42;;;;;;;15.10;8.00;;;;;;;17.63;79.79;94950.94;5014696;28;20711;-80
2023/05/22 06:28:07;;;;;;;14.77;7.63;;;;;;;17.75;81.18;94949.00;5031494;28;20245;-80
2023/05/22 06:30:34;;;;;;;13.13;7.23;;;;;;;17.71;75.04;94947.88;5018536;28;20651;-80
2023/05/22 06:33:00;;;;;;;15.10;7.70;;;;;;;17.72;78.56;94942.31;5027019;28;20226;-72
2023/05/22 06:35:26;;;;;;;20.00;7.60;;;;;;;17.87;76.53;94950.50;5032351;28;20233;-73
2023/05/22 06:37:51;;;;;;;14.00;7.83;;;;;;;18.01;77.23;94946.47;5018561;28;20244;-74
2023/05/22 06:40:17;;;;;;;14.23;7.30;;;;;;;18.13;75.00;94943.69;5028325;28;20233;-73
2023/05/22 06:42:43;;;;;;;14.90;7.30;;;;;;;18.19;76.00;94948.03;5028582;28;20635;-72
2023/05/22 06:45:09;;;;;;;20.53;7.70;;;;;;;18.32;75.75;94942.34;5029452;28;20799;-73
2023/05/22 06:47:34;;;;;;;13.07;7.47;;;;;;;18.50;76.14;94947.38;5029979;28;20233;-73
2023/05/22 06:50:00;;;;;;;14.77;7.47;;;;;;;18.56;73.95;94943.72;5020634;28;20315;-74
2023/05/22 06:52:25;;;;;;;15.00;6.83;;;;;;;18.54;71.75;94939.72;5037479;28;20237;-74
2023/05/22 06:54:51;;;;;;;12.47;6.33;;;;;;;18.68;73.86;94946.25;5009130;28;20242;-74
2023/05/22 06:57:16;;;;;;;14.50;5.93;;;;;;;18.89;70.12;94944.63;5029931;28;20299;-73
2023/05/22 06:59:42;;;;;;;14.30;5.83;;;;;;;18.98;69.42;94943.13;5032682;28;20252;-73
2023/05/22 07:02:07;;;;;;;12.10;6.40;;;;;;;19.04;71.41;94944.75;5012981;28;20311;-73
2023/05/22 07:04:33;;;;;;;15.10;6.43;;;;;;;18.97;71.56;94950.28;5020816;28;20267;-73
2023/05/22 07:06:58;;;;;;;11.83;6.20;;;;;;;18.82;75.07;94940.31;5032591;28;20230;-73
2023/05/22 07:09:24;;;;;;;17.63;6.70;;;;;;;18.65;68.26;94952.84;5030559;28;20324;-72
2023/05/22 07:11:50;;;;;;;16.33;6.60;;;;;;;18.68;70.72;94948.91;5018090;28;20234;-73
2023/05/22 07:14:16;;;;;;;11.90;6.77;;;;;;;18.69;70.95;94938.06;5016841;28;20287;-73
2023/05/22 07:16:42;;;;;;;23.00;7.23;;;;;;;18.74;73.00;94932.81;5033926;28;20229;-74
2023/05/22 07:19:09;;;;;;;16.23;6.57;;;;;;;18.71;70.99;94940.44;5016448;28;20229;-73
2023/05/22 07:21:34;;;;;;;15.27;6.30;;;;;;;18.62;70.95;94940.09;5034298;28;20253;-72
2023/05/22 07:24:07;;;;;;;14.67;6.70;;;;;;;18.57;70.51;94945.34;5014066;28;20698;-73
2023/05/22 07:26:36;;;;;;;14.67;6.20;;;;;;;18.65;68.14;94946.75;5036140;28;20264;-74
2023/05/22 07:29:01;;;;;;;11.80;6.10;;;;;;;18.73;68.54;94943.66;5013155;28;20260;-74
2023/05/22 07:31:27;;;;;;;11.63;5.83;;;;;;;18.65;71.00;94944.88;5026337;28;20229;-72
2023/05/22 07:33:52;;;;;;;13.90;5.50;;;;;;;18.75;69.80;94936.25;5021919;28;20240;-73
2023/05/22 07:36:19;;;;;;;11.47;5.80;;;;;;;18.72;69.73;94932.22;5024635;28;20230;-72
2023/05/22 07:38:45;;;;;;;12.33;5.80;;;;;;;18.74;71.54;94939.97;5017790;28;20259;-73
2023/05/22 07:41:10;;;;;;;11.37;5.60;;;;;;;18.63;72.76;94944.34;5034244;28;20887;-80
2023/05/22 07:43:36;;;;;;;14.47;5.67;;;;;;;18.69;69.17;94938.06;5029581;28;20230;-79
2023/05/22 07:46:01;;;;;;;10.20;5.40;;;;;;;18.77;67.46;94936.81;5024429;28;20264;-79
2023/05/22 07:48:27;;;;;;;12.70;5.20;;;;;;;18.86;69.06;94934.50;5032878;28;20234;-79
2023/05/22 07:50:53;;;;;;;10.30;5.00;;;;;;;18.91;68.98;94939.88;5032265;28;20237;-80
2023/05/22 07:53:18;;;;;;;13.53;5.33;;;;;;;19.02;68.46;94937.06;4998904;28;20232;-80
2023/05/22 07:55:44;;;;;;;9.57;5.13;;;;;;;19.03;70.77;94928.06;5018736;28;20798;-80
2023/05/22 07:58:09;;;;;;;11.90;5.30;;;;;;;19.16;70.05;94935.59;5014826;28;20289;-80
2023/05/22 08:00:35;;;;;;;11.70;5.50;;;;;;;19.28;68.17;94932.75;5028734;28;20240;-81
2023/05/22 08:03:00;;;;;;;10.87;5.00;;;;;;;19.63;66.77;94932.28;4997745;28;21333;-79
2023/05/22 08:05:26;;;;;;;10.77;4.53;;;;;;;19.76;63.69;94934.50;5034650;28;20241;-80
2023/05/22 08:07:51;;;;;;;13.03;4.60;;;;;;;20.00;64.27;94941.81;5016170;28;20265;-80
2023/05/22 08:10:17;;;;;;;9.27;4.50;;;;;;;20.12;63.16;94937.13;5033733;28;20228;-79
2023/05/22 08:12:43;;;;;;;11.83;4.80;;;;;;;20.20;62.95;94938.47;5035607;28;20238;-81
2023/05/22 08:15:08;;;;;;;7.97;4.70;;;;;;;20.26;62.89;94934.81;5035361;28;20316;-83
2023/05/22 08:17:34;;;;;;;12.23;4.83;;;;;;;20.15;62.35;94939.25;5018886;28;20738;-79
2023/05/22 08:19:59;;;;;;;11.73;4.70;;;;;;;20.30;61.63;94933.22;5020103;28;20331;-81
2023/05/22 08:22:25;;;;;;;12.20;4.80;;;;;;;20.37;63.34;94925.81;5030882;28;20229;-81
2023/05/22 08:24:50;;;;;;;11.17;4.37;;;;;;;20.46;62.70;94932.25;5032638;28;20283;-81
2023/05/22 08:27:16;;;;;;;9.13;4.30;;;;;;;20.50;60.07;94921.88;5029308;28;20237;-82
2023/05/22 08:29:41;;;;;;;9.43;4.80;;;;;;;20.75;62.60;94935.28;5012395;28;20234;-82
2023/05/22 08:32:07;;;;;;;12.00;4.20;;;;;;;20.81;55.42;94944.84;5028932;28;20304;-78
2023/05/22 08:34:32;;;;;;;10.33;4.13;;;;;;;20.90;58.41;94932.63;5026697;28;20225;-82
2023/05/22 08:36:58;;;;;;;7.47;4.27;;;;;;;21.09;60.24;94925.00;5035837;28;20228;-81
2023/05/22 08:39:24;;;;;;;8.20;4.27;;;;;;;21.19;55.53;94933.78;5014865;28;20226;-79
2023/05/22 08:41:50;;;;;;;8.37;3.90;;;;;;;21.03;55.68;94926.00;5013259;28;20280;-80
2023/05/22 08:44:15;;;;;;;10.43;4.10;;;;;;;21.06;56.50;94925.53;5032887;28;20251;-83
2023/05/22 08:46:42;;;;;;;9.10;4.23;;;;;;;21.08;57.64;94923.38;5038114;28;20557;-83
2023/05/22 08:49:08;;;;;;;6.80;4.13;;;;;;;21.23;56.51;94923.41;5022052;28;20252;-82
2023/05/22 08:51:37;;;;;;;9.70;3.73;;;;;;;21.31;53.26;94922.88;5020899;28;20233;-84
2023/05/22 08:54:03;;;;;;;13.57;3.60;;;;;;;21.59;51.16;94917.00;5017012;28;20250;-82
2023/05/22 08:56:29;;;;;;;10.57;3.40;;;;;;;21.71;51.51;94924.75;5021704;28;21331;-82
2023/05/22 08:58:55;;;;;;;6.43;3.50;;;;;;;21.91;52.23;94927.38;5033830;28;20328;-81
2023/05/22 09:01:22;;;;;;;6.43;3.57;;;;;;;21.91;49.04;94922.88;5035809;28;20222;-80
2023/05/22 09:03:49;;;;;;;4.90;3.27;;;;;;;21.94;51.09;94918.88;5006426;28;20241;-83
2023/05/22 09:06:16;;;;;;;9.73;3.30;;;;;;;21.72;48.16;94923.66;5015955;28;20242;-80
2023/05/22 09:08:42;;;;;;;10.77;3.80;;;;;;;21.88;51.12;94914.59;5024564;28;20274;-80
2023/05/22 09:11:07;;;;;;;7.00;3.80;;;;;;;22.07;51.67;94920.94;5030563;28;20241;-80
2023/05/22 09:13:33;;;;;;;9.00;3.57;;;;;;;22.04;48.97;94919.63;5036187;28;20233;-79
2023/05/22 09:16:11;;;;;;;9.47;3.90;;;;;;;21.78;48.19;94923.38;5015796;28;20232;-75
2023/05/22 09:18:37;;;;;;;6.47;3.77;;;;;;;21.56;50.65;94914.88;5007524;28;20236;-74
2023/05/22 09:21:03;;;;;;;9.30;3.67;;;;;;;21.61;51.10;94914.88;5006970;28;20249;-75
2023/05/22 09:23:29;;;;;;;7.63;3.73;;;;;;;21.48;51.56;94908.22;5012844;28;20241;-75
2023/05/22 09:25:58;;;;;;;9.20;3.53;;;;;;;21.43;50.92;94921.53;5034221;28;20233;-74
2023/05/22 09:28:24;;;;;;;10.13;3.75;;;;;;;21.23;50.04;94921.53;5030110;28;20761;-75
2023/05/22 09:30:51;;;;;;;10.70;3.90;;;;;;;21.03;49.72;94912.69;5031426;28;20234;-76
2023/05/22 09:33:17;;;;;;;8.53;4.00;;;;;;;20.92;53.98;94919.06;5022321;28;20241;-75
2023/05/22 09:35:44;;;;;;;7.88;3.50;;;;;;;20.92;52.09;94913.75;5012381;28;20257;-74
2023/05/22 09:38:10;;;;;;;8.32;3.67;;;;;;;20.84;51.87;94912.41;5029859;28;20238;-73
2023/05/22 09:40:39;;;;;;;11.13;3.80;;;;;;;20.76;55.25;94908.41;5032821;28;20265;-74
2023/05/22 09:43:10;;;;;;;7.80;4.10;;;;;;;20.83;56.99;94908.94;5029163;28;20245;-76
2023/05/22 09:45:37;;;;;;;10.27;3.80;;;;;;;20.70;56.16;94916.63;5022746;28;20238;-75
2023/05/22 09:48:04;;;;;;;8.87;4.10;;;;;;;20.68;57.32;94910.78;5030510;28;20238;-75
2023/05/22 09:50:30;;;;;;;9.93;4.00;;;;;;;20.60;59.53;94919.25;5029568;28;20233;-75
2023/05/22 09:52:56;;;;;;;11.37;4.40;;;;;;;20.34;57.51;94917.56;5013704;28;20245;-74
2023/05/22 09:55:22;;;;;;;12.60;4.53;;;;;;;20.31;58.62;94916.22;5004404;28;20239;-74
2023/05/22 09:57:51;;;;;;;7.93;4.00;;;;;;;20.24;59.45;94922.84;5013651;28;20703;-77
2023/05/22 10:00:17;;;;;;;7.27;4.07;;;;;;;20.32;59.44;94917.03;5009225;28;20287;-73
2023/05/22 10:02:53;;;;;;;8.93;4.03;;;;;;;20.41;60.05;94918.94;5015077;28;20242;-75
2023/05/22 10:05:22;;;;;;;9.50;4.40;;;;;;;20.38;58.91;94923.94;4998271;28;20233;-75
2023/05/22 10:08:01;;;;;;;9.43;4.20;;;;;;;20.26;59.19;94918.06;5029281;28;20249;-73
2023/05/22 10:10:26;;;;;;;7.63;4.00;;;;;;;20.24;58.98;94918.31;4996244;28;20289;-75
2023/05/22 10:13:05;;;;;;;9.83;4.20;;;;;;;20.17;62.98;94912.41;5015035;28;21033;-73
2023/05/22 10:15:31;;;;;;;9.17;4.43;;;;;;;20.18;59.18;94925.44;5031261;28;20379;-75
2023/05/22 10:17:57;;;;;;;11.83;4.20;;;;;;;20.10;58.53;94925.94;5017996;28;20723;-75
2023/05/22 10:20:28;;;;;;;7.63;4.20;;;;;;;20.00;58.98;94923.22;5014101;28;20237;-75
2023/05/22 10:22:54;;;;;;;7.43;4.23;;;;;;;19.90;60.53;94923.16;5032055;28;20240;-76
2023/05/22 10:25:22;;;;;;;8.67;4.33;;;;;;;19.87;61.00;94931.63;5015837;28;20233;-75
2023/05/22 10:27:48;;;;;;;8.57;4.33;;;;;;;19.93;62.83;94929.81;5030896;28;20237;-75
2023/05/22 10:30:34;;;;;;;7.20;4.50;;;;;;;19.44;66.38;94930.00;5027988;28;20238;-73
2023/05/22 10:33:03;;;;;;;10.87;4.80;;;;;;;19.29;69.69;94934.38;5032990;28;20241;-73
2023/05/22 10:35:39;;;;;;;7.40;4.43;;;;;;;19.15;68.15;94939.31;5013485;28;20375;-75
2023/05/22 10:38:29;;;;;;;10.63;4.87;;;;;;;19.08;71.27;94946.66;5021181;28;20324;-74
2023/05/22 10:40:54;;;;;;;12.50;5.20;;;;;;;18.72;80.54;94950.78;5029109;28;20341;-74
2023/05/22 10:43:20;;;;;;;10.43;4.97;;;;;;;18.63;82.12;94948.84;5010175;28;20899;-75
2023/05/22 10:45:46;;;;;;;11.37;5.33;;;;;;;18.45;86.38;94949.94;5032306;28;20237;-75
2023/05/22 10:48:12;;;;;;;12.07;5.30;;;;;;;18.29;89.54;94937.56;5018521;28;20324;-74
2023/05/22 10:50:38;;;;;;;12.40;5.27;;;;;;;18.31;88.98;94934.66;5012373;28;20371;-73
2023/05/22 10:53:25;;;;;;;9.97;6.10;;;;;;;18.21;97.04;94935.34;5011803;28;20233;-74
2023/05/22 10:55:51;;;;;;;10.87;6.03;;;;;;;18.31;98.23;94924.88;5031622;28;20324;-74
2023/05/22 10:58:17;;;;;;;14.60;5.70;;;;;;;18.39;97.96;94916.47;5014345;28;20443;-74
2023/05/22 11:00:43;;;;;;;13.50;6.00;;;;;;;18.63;96.27;94917.00;5003650;28;20237;-75
2023/05/22 11:03:10;;;;;;;16.53;6.23;;;;;;;18.80;94.83;94918.53;5014417;28;20316;-74
2023/05/22 11:05:36;;;;;;;12.77;7.00;;;;;;;18.92;94.84;94920.22;5008806;28;20234;-75
2023/05/22 11:08:33;;;;;;;11.80;6.43;;;;;;;19.13;93.57;94922.03;5030008;28;21105;-74
2023/05/22 11:11:00;;;;;;;16.40;6.43;;;;;;;19.25;89.25;94914.72;5016999;28;20257;-74
2023/05/22 11:13:26;;;;;;;11.93;6.17;;;;;;;19.39;88.34;94905.31;5010984;28;20244;-73
2023/05/22 11:15:53;;;;;;;13.33;5.87;;;;;;;19.48;86.34;94906.44;5004298;28;20226;-72
2023/05/22 11:18:18;;;;;;;13.03;5.77;;;;;;;19.53;81.57;94901.16;5015444;28;20237;-74
2023/05/22 11:20:44;;;;;;;10.83;5.47;;;;;;;19.60;79.43;94901.72;5022787;28;20233;-78
2023/05/22 11:23:09;;;;;;;8.40;5.57;;;;;;;19.49;80.85;94906.16;5012876;28;20712;-78
2023/05/22 11:25:38;;;;;;;12.47;5.67;;;;;;;19.23;84.03;94930.88;5014471;28;20225;-78